Aérodrome :
LOGIN :

S'inscrire | Disclaimer

   EN    FR    IT 

 










Légende :    VFR   VFR Marginal   IFR   IFR Intensif   IFR Très Intensif
Visi : 
Plafond : 
>= 8 km
>= 3000ft
5 à 8 km
1000 à 3000 ft
1500m à 5 km
500 à 1000 ft
800 à 1500m
200 à 500 ft
< 800m
< 200 ft
Symboles :   Orages  Brouillard  Fortes neiges  Fortes précipitations  Vent > 20 kt
SIGMETs :   Divers  Orages  Givrage  Turbulence  Onde Orograph.  Cendres Volcan.






- Altitude de l'aérodrome : 1363 ft


ETIC - Grafenwohr Army Air Field

DERNIER METAR :
  • 220156Z AUTO 27008KT 9000 -UP BR OVC005 01/00 A3025 RMK AO2 RAE42UPB42 SLP269 P0000 T00060000 FZRANO $

METARs EXPIRÉS :
  • 220056Z AUTO 26009KT 9000 -RA BR OVC005 00/M00 A3025 RMK AO2 SNE2356RAB2356E30SNB30E40RAB40 SLP269 P0000 T00041002 FZRANO $
  • 220040Z AUTO 26008KT 9000 -RA BR OVC005 00/M00 A3026 RMK AO2 SNE2356RAB2356E30SNB30E40RAB40 SLP272 FZRANO $
  • 220030Z AUTO 26008KT 4000 -SN BR OVC005 00/M00 A3026 RMK AO2 VIS 3000V4400 SNE2356RAB2356E30SNB30 SLP272 FZRANO $
  • 212357Z AUTO 26007KT 8000 -RA BR OVC005 00/M00 A3026 RMK AO2 SNE56RAB56 SLP272 FZRANO $

TAF TAF ETIC
Valide du 21 à 18h jusqu'au 23 à 00h UTC


211800Z 2118/2224 28009KT 8000 -SN BKN015 OVC020 620159 510208 QNH3034INS
TEMPO 2122/2204 28012G18KT 5000 -RASN BKN010 650159 510109
BECMG 2203/2204 29012KT 5000 -RASN OVC015 650158 QNH3025INS
BECMG 2208/2209 28009KT 8000 -RASN BKN008 OVC015 650089 510208 QNH3034INS
BECMG 2217/2218 28010KT 5000 -SN BKN008 OVC010 650159 QNH3042INS TX02/2215Z TNM02/2118Z LAST NO AMDS AFT 2120 NEXT 2402



MET'MAP, la Météo Aéronautique d'un coup d'oeil ! - Copyright ORBIFLY Décembre 2007 - Disclaimer

ORBIFLY MET'MAP TEAM :

Programmation & Développement : Alexandra Zaïnal
Sur une idée originale de : Baudouin d'Aumeries
Assistance à la programmation : Marc-Olivier Méhu
Soutien technique & logistique : Manuel Goepfert

Contact : metmap@orbifly.com




SOURCES & CREDITS :

   NOAA